FBSP

Selebi Phikwe Airport

Botswana
METAR FBSP 251300Z VRB02KT 9999 FEW030 34/12 Q1014
Observed Flight Rules
Sep-25 @ 13:00 UTC (2 hours ago) Visual Flight Rules
Wind Visibility Clouds
Variable at 2 knots 10,000+ meters
  • Few at 3,000' AGL
Temperatures Readings
Current 34°C / 93°F
Dewpoint 12°C / 54°F
Humidity 26%
Altimeter 29.94" Hg
Pressure 1014 hPa
Elevation 892
METAR FBSP 251300Z VRB02KT 9999 FEW030 34/12 Q1014
Observed Flight Rules
Sep-25 @ 13:00 UTC
(2 hours ago)
VFR
Wind Visibility
Variable at 2 knots 10,000+ meters
Clouds
  • Few at 3,000' AGL
Temperature Dewpoint
34°C / 93°F 12°C / 54°F
Humidity Altimeter Pressure
26% 29.94" Hg 1014 hPa